createdAt,value
2023-04-18T00:00:57.887Z,206.30
2023-04-18T00:03:25.648Z,205.73
2023-04-18T00:05:53.260Z,199.93
2023-04-18T00:08:20.174Z,206.70
2023-04-18T00:10:47.485Z,206.47
2023-04-18T00:13:14.438Z,210.13
2023-04-18T00:15:43.849Z,210.03
2023-04-18T00:18:10.849Z,210.60
2023-04-18T00:20:38.996Z,205.43
2023-04-18T00:23:06.301Z,207.90
2023-04-18T00:25:33.443Z,202.40
2023-04-18T00:28:00.475Z,208.63
2023-04-18T00:30:27.536Z,207.17
2023-04-18T00:32:54.525Z,210.17
2023-04-18T00:35:21.665Z,212.30
2023-04-18T00:37:48.644Z,209.67
2023-04-18T00:40:16.642Z,208.03
2023-04-18T00:42:43.668Z,209.90
2023-04-18T00:45:11.047Z,209.03
2023-04-18T00:47:38.231Z,234.00
2023-04-18T00:50:06.431Z,215.33
2023-04-18T00:52:35.836Z,209.63
2023-04-18T00:55:06.627Z,221.17
2023-04-18T00:57:34.232Z,210.60
2023-04-18T01:00:04.898Z,206.70
2023-04-18T01:02:33.984Z,210.30
2023-04-18T01:05:02.054Z,210.90
2023-04-18T01:07:33.422Z,217.27
2023-04-18T01:10:02.032Z,220.07
2023-04-18T01:12:29.016Z,215.07
2023-04-18T01:14:56.032Z,205.83
2023-04-18T01:17:23.381Z,208.83
2023-04-18T01:19:51.624Z,212.57
2023-04-18T01:22:20.045Z,223.30
2023-04-18T01:24:47.027Z,211.47
2023-04-18T01:27:14.491Z,211.90
2023-04-18T01:29:41.508Z,208.10
2023-04-18T01:32:08.604Z,212.27
2023-04-18T01:34:37.002Z,218.87
2023-04-18T01:37:06.364Z,224.23
2023-04-18T01:39:33.367Z,212.20
2023-04-18T01:42:01.965Z,206.50
2023-04-18T01:44:28.915Z,205.07
2023-04-18T01:46:55.991Z,214.77
2023-04-18T01:49:23.198Z,208.70
2023-04-18T01:51:50.166Z,220.20
2023-04-18T01:54:17.128Z,213.33
2023-04-18T01:56:44.052Z,208.23
2023-04-18T01:59:11.048Z,215.70
2023-04-18T02:01:38.781Z,208.70
2023-04-18T02:04:05.783Z,218.90
2023-04-18T02:06:32.753Z,206.47
2023-04-18T02:09:00.149Z,205.67
2023-04-18T02:11:27.134Z,202.47
2023-04-18T02:13:54.106Z,217.43
2023-04-18T02:16:21.389Z,212.23
2023-04-18T02:18:49.729Z,215.00
2023-04-18T02:21:16.722Z,201.07
2023-04-18T02:23:43.665Z,206.53
2023-04-18T02:26:10.635Z,203.63
2023-04-18T02:28:39.076Z,209.80
2023-04-18T02:31:07.847Z,221.27
2023-04-18T02:33:34.809Z,207.10
2023-04-18T02:36:01.847Z,209.80
2023-04-18T02:38:28.965Z,225.20
2023-04-18T02:40:56.078Z,207.63
2023-04-18T02:43:23.206Z,208.57
2023-04-18T02:45:50.622Z,208.63
2023-04-18T02:48:17.811Z,209.80
2023-04-18T02:50:45.965Z,214.40
2023-04-18T02:53:13.305Z,207.17
2023-04-18T02:55:51.433Z,214.63
2023-04-18T02:58:19.625Z,214.13
2023-04-18T03:01:19.611Z,210.37
2023-04-18T03:04:02.004Z,209.67
2023-04-18T03:06:39.250Z,207.67
2023-04-18T03:09:07.114Z,209.30
2023-04-18T03:11:37.078Z,214.53
2023-04-18T03:14:04.892Z,211.60
2023-04-18T03:16:45.644Z,213.33
2023-04-18T03:19:15.921Z,216.60
2023-04-18T03:21:43.074Z,208.03
2023-04-18T03:24:12.324Z,210.70
2023-04-18T03:26:41.284Z,212.73
2023-04-18T03:29:08.785Z,212.40
2023-04-18T03:31:35.950Z,207.57
2023-04-18T03:34:03.028Z,209.30
2023-04-18T03:36:31.371Z,210.70
2023-04-18T03:38:58.851Z,221.47
2023-04-18T03:41:27.027Z,212.13
2023-04-18T03:43:55.870Z,210.43
2023-04-18T03:46:24.610Z,211.80
2023-04-18T03:48:53.693Z,206.47
2023-04-18T03:51:21.593Z,210.90
2023-04-18T03:53:48.536Z,209.20
2023-04-18T03:56:17.148Z,211.80
2023-04-18T03:58:52.086Z,209.23
2023-04-18T04:01:21.605Z,213.93
2023-04-18T04:03:51.543Z,207.63
2023-04-18T04:06:19.052Z,213.00
2023-04-18T04:08:46.036Z,214.50
2023-04-18T04:11:14.609Z,211.37
2023-04-18T04:13:42.380Z,205.90
2023-04-18T04:16:10.421Z,206.07
2023-04-18T04:18:37.811Z,203.87
2023-04-18T04:21:05.779Z,207.03
2023-04-18T04:23:50.479Z,207.27
2023-04-18T04:26:27.705Z,205.83
2023-04-18T04:29:03.624Z,206.47
2023-04-18T04:31:32.276Z,204.10
2023-04-18T04:33:59.334Z,207.57
2023-04-18T04:36:27.263Z,208.57
2023-04-18T04:38:56.942Z,207.33
2023-04-18T04:41:32.098Z,207.27
2023-04-18T04:43:59.736Z,204.47
2023-04-18T04:46:31.325Z,206.43
2023-04-18T04:49:00.956Z,207.10
2023-04-18T04:51:27.968Z,205.80
2023-04-18T04:53:55.587Z,205.23
2023-04-18T04:56:23.395Z,203.73
2023-04-18T04:58:50.573Z,205.07
2023-04-18T05:01:24.443Z,210.27
2023-04-18T05:03:52.635Z,204.00
2023-04-18T05:06:20.889Z,209.17
2023-04-18T05:08:48.839Z,208.40
2023-04-18T05:11:16.610Z,207.30
2023-04-18T05:13:43.683Z,206.93
2023-04-18T05:16:11.009Z,205.47
2023-04-18T05:18:39.343Z,206.50
2023-04-18T05:21:06.300Z,209.67
2023-04-18T05:23:36.850Z,209.03
2023-04-18T05:26:07.204Z,209.20
2023-04-18T05:28:34.178Z,206.80
2023-04-18T05:31:01.418Z,206.97
2023-04-18T05:33:29.630Z,210.77
2023-04-18T05:35:57.589Z,208.93
2023-04-18T05:38:24.723Z,206.77
2023-04-18T05:40:51.683Z,207.37
2023-04-18T05:43:19.891Z,216.03
2023-04-18T05:45:47.480Z,206.80
2023-04-18T05:48:14.695Z,211.93
2023-04-18T05:50:41.721Z,202.40
2023-04-18T05:53:08.730Z,211.63
2023-04-18T05:55:35.722Z,213.17
2023-04-18T05:58:02.684Z,207.97
2023-04-18T06:00:29.636Z,208.87
2023-04-18T06:02:56.775Z,212.60
2023-04-18T06:05:24.207Z,213.30
2023-04-18T06:07:51.306Z,202.93
2023-04-18T06:10:18.280Z,205.70
2023-04-18T06:12:45.399Z,211.10
2023-04-18T06:15:12.493Z,211.33
2023-04-18T06:17:39.639Z,206.67
2023-04-18T06:20:07.293Z,210.23
2023-04-18T06:22:34.321Z,215.43
2023-04-18T06:25:01.386Z,221.93
2023-04-18T06:27:31.464Z,291.80
2023-04-18T06:29:59.235Z,265.53
2023-04-18T06:32:26.584Z,358.30
2023-04-18T06:34:53.766Z,210.30
2023-04-18T06:37:21.057Z,211.03
2023-04-18T06:39:48.055Z,220.27
2023-04-18T06:42:15.080Z,216.33
2023-04-18T06:44:44.989Z,209.63
2023-04-18T06:47:12.299Z,214.00
2023-04-18T06:49:39.219Z,214.70
2023-04-18T06:52:06.509Z,215.53
2023-04-18T06:54:33.497Z,258.73
2023-04-18T06:57:02.197Z,233.27
2023-04-18T06:59:29.190Z,275.73
2023-04-18T07:01:56.304Z,220.27
2023-04-18T07:04:23.524Z,254.40
2023-04-18T07:06:52.018Z,219.20
2023-04-18T07:09:19.424Z,218.53
2023-04-18T07:11:46.456Z,219.77
2023-04-18T07:14:13.557Z,214.97
2023-04-18T07:16:40.785Z,217.50
2023-04-18T07:19:08.340Z,222.07
2023-04-18T07:21:35.385Z,231.37
2023-04-18T07:24:02.302Z,216.97
2023-04-18T07:26:29.253Z,216.60
2023-04-18T07:28:56.255Z,279.60
2023-04-18T07:31:25.647Z,226.60
2023-04-18T07:33:52.725Z,241.37
2023-04-18T07:36:20.065Z,233.67
2023-04-18T07:38:47.431Z,250.70
2023-04-18T07:41:14.534Z,266.33
2023-04-18T07:43:41.578Z,244.73
2023-04-18T07:46:08.699Z,219.33
2023-04-18T07:48:35.711Z,257.43
2023-04-18T07:51:03.932Z,217.90
2023-04-18T07:53:30.848Z,217.70
2023-04-18T07:55:57.858Z,221.23
2023-04-18T07:58:24.825Z,225.77
2023-04-18T08:00:51.788Z,216.90
2023-04-18T08:03:19.007Z,215.87
2023-04-18T08:05:46.273Z,226.43
2023-04-18T08:08:13.412Z,228.47
2023-04-18T08:10:40.433Z,238.47
2023-04-18T08:13:08.142Z,223.13
2023-04-18T08:15:35.308Z,225.03
2023-04-18T08:18:02.434Z,231.35
2023-04-18T08:20:29.523Z,236.43
2023-04-18T08:23:07.448Z,230.20
2023-04-18T08:25:36.398Z,224.93
2023-04-18T08:28:04.076Z,224.20
2023-04-18T08:30:31.572Z,245.40
2023-04-18T08:33:00.542Z,231.27
2023-04-18T08:35:27.750Z,247.48
2023-04-18T08:37:54.681Z,223.57
2023-04-18T08:40:21.924Z,264.77
2023-04-18T08:42:52.437Z,220.55
2023-04-18T08:45:20.866Z,253.03
2023-04-18T08:47:48.065Z,304.25
2023-04-18T08:50:16.531Z,222.90
2023-04-18T08:52:50.286Z,218.20
2023-04-18T08:55:19.118Z,234.00
2023-04-18T08:57:46.075Z,227.57
2023-04-18T09:00:14.116Z,225.93
2023-04-18T09:02:46.934Z,223.73
2023-04-18T09:05:19.866Z,226.57
2023-04-18T09:07:50.764Z,226.93
2023-04-18T09:10:29.247Z,226.90
2023-04-18T09:12:58.013Z,219.53
2023-04-18T09:15:29.161Z,230.33
2023-04-18T09:18:03.108Z,228.43
2023-04-18T09:20:41.113Z,240.33
2023-04-18T09:23:14.522Z,229.00
2023-04-18T09:25:44.549Z,231.07
2023-04-18T09:28:33.129Z,233.47
2023-04-18T09:31:10.190Z,236.95
2023-04-18T09:33:38.108Z,228.83
2023-04-18T09:36:28.969Z,240.93
2023-04-18T09:38:57.195Z,230.35
2023-04-18T09:41:24.578Z,231.65
2023-04-18T09:44:14.325Z,233.27
2023-04-18T09:46:44.470Z,240.75
2023-04-18T09:49:13.411Z,232.27
2023-04-18T09:51:42.057Z,228.90
2023-04-18T09:54:16.743Z,234.23
2023-04-18T09:56:50.516Z,227.82
2023-04-18T09:59:52.013Z,222.52
2023-04-18T10:02:23.795Z,231.55
2023-04-18T10:04:54.303Z,232.57
2023-04-18T10:07:21.850Z,235.45
2023-04-18T10:09:49.697Z,229.05
2023-04-18T10:12:18.527Z,233.68
2023-04-18T10:14:45.862Z,236.50
2023-04-18T10:17:15.276Z,235.48
2023-04-18T10:19:44.338Z,234.77
2023-04-18T10:22:12.297Z,236.80
2023-04-18T10:24:50.160Z,236.95
2023-04-18T10:27:18.452Z,350.08
2023-04-18T10:29:49.976Z,237.75
2023-04-18T10:32:23.919Z,234.60
2023-04-18T10:34:53.500Z,237.48
2023-04-18T10:37:20.668Z,234.90
2023-04-18T10:40:06.848Z,236.25
2023-04-18T10:42:51.828Z,241.98
2023-04-18T10:45:26.451Z,237.18
2023-04-18T10:48:21.883Z,245.00
2023-04-18T10:51:20.886Z,248.75
2023-04-18T10:53:57.950Z,256.27
2023-04-18T10:56:26.118Z,243.35
2023-04-18T10:58:53.881Z,238.50
2023-04-18T11:01:32.385Z,238.85
2023-04-18T11:04:01.096Z,237.20
2023-04-18T11:06:28.994Z,236.90
2023-04-18T11:09:13.745Z,246.48
2023-04-18T11:11:41.714Z,235.18
2023-04-18T11:14:08.976Z,234.68
2023-04-18T11:16:36.522Z,237.43
2023-04-18T11:19:26.375Z,242.52
2023-04-18T11:21:53.370Z,238.50
2023-04-18T11:24:24.578Z,240.43
2023-04-18T11:26:55.702Z,239.10
2023-04-18T11:29:23.052Z,242.18
2023-04-18T11:31:53.031Z,229.02
2023-04-18T11:34:20.809Z,242.07
2023-04-18T11:36:52.357Z,240.95
2023-04-18T11:39:20.184Z,231.85
2023-04-18T11:41:50.548Z,279.45
2023-04-18T11:44:27.692Z,236.30
2023-04-18T11:46:54.702Z,233.38
2023-04-18T11:49:30.245Z,245.35
2023-04-18T11:51:58.302Z,250.32
2023-04-18T11:54:39.137Z,246.77
2023-04-18T11:57:18.210Z,254.00
2023-04-18T11:59:50.931Z,242.38
2023-04-18T12:02:18.210Z,240.43
2023-04-18T12:05:00.181Z,236.75
2023-04-18T12:08:11.899Z,235.88
2023-04-18T12:10:50.602Z,237.77
2023-04-18T12:13:18.814Z,236.90
2023-04-18T12:15:46.817Z,236.75
2023-04-18T12:18:15.610Z,239.05
2023-04-18T12:20:50.857Z,234.98
2023-04-18T12:23:42.318Z,237.48
2023-04-18T12:26:18.222Z,252.05
2023-04-18T12:28:46.560Z,248.40
2023-04-18T12:31:13.538Z,239.63
2023-04-18T12:33:40.520Z,238.15
2023-04-18T12:36:09.043Z,238.07
2023-04-18T12:38:36.200Z,230.40
2023-04-18T12:41:03.225Z,226.00
2023-04-18T12:43:30.169Z,221.57
2023-04-18T12:45:57.751Z,230.55
2023-04-18T12:48:24.733Z,226.15
2023-04-18T12:50:51.648Z,231.88
2023-04-18T12:53:18.632Z,222.95
2023-04-18T12:55:45.769Z,234.63
2023-04-18T12:58:18.366Z,226.88
2023-04-18T13:00:45.851Z,240.38
2023-04-18T13:03:13.595Z,237.32
2023-04-18T13:05:41.072Z,243.98
2023-04-18T13:08:16.927Z,234.07
2023-04-18T13:10:46.133Z,232.07
2023-04-18T13:13:13.348Z,242.00
2023-04-18T13:15:40.680Z,232.50
2023-04-18T13:18:07.950Z,236.32
2023-04-18T13:20:35.851Z,238.30
2023-04-18T13:23:03.720Z,234.05
2023-04-18T13:25:30.776Z,232.65
2023-04-18T13:27:58.597Z,235.57
2023-04-18T13:30:26.077Z,236.65
2023-04-18T13:32:53.223Z,234.52
2023-04-18T13:35:20.400Z,232.45
2023-04-18T13:37:47.316Z,236.80
2023-04-18T13:40:15.924Z,221.70
2023-04-18T13:42:43.520Z,224.32
2023-04-18T13:45:11.019Z,235.55
2023-04-18T13:47:38.237Z,248.63
2023-04-18T13:50:06.218Z,239.70
2023-04-18T13:52:33.322Z,230.68
2023-04-18T13:55:00.976Z,236.35
2023-04-18T13:57:28.403Z,232.57
2023-04-18T13:59:55.555Z,237.45
2023-04-18T14:02:22.711Z,234.82
2023-04-18T14:04:49.985Z,228.50
2023-04-18T14:07:16.991Z,229.60
2023-04-18T14:09:43.991Z,230.40
2023-04-18T14:12:10.928Z,231.93
2023-04-18T14:14:37.916Z,232.93
2023-04-18T14:17:04.864Z,229.93
2023-04-18T14:19:31.835Z,231.85
2023-04-18T14:21:58.814Z,230.32
2023-04-18T14:24:26.141Z,226.50
2023-04-18T14:26:53.149Z,227.63
2023-04-18T14:29:20.141Z,231.23
2023-04-18T14:31:47.116Z,235.30
2023-04-18T14:34:14.411Z,227.15
2023-04-18T14:36:41.409Z,231.95
2023-04-18T14:39:08.450Z,230.95
2023-04-18T14:41:35.758Z,229.93
2023-04-18T14:44:04.035Z,234.90
2023-04-18T14:46:31.432Z,232.13
2023-04-18T14:48:58.468Z,227.10
2023-04-18T14:51:26.209Z,229.52
2023-04-18T14:53:53.167Z,233.45
2023-04-18T14:56:24.217Z,227.77
2023-04-18T14:58:51.269Z,227.48
2023-04-18T15:01:18.589Z,231.98
2023-04-18T15:03:46.093Z,226.73
2023-04-18T15:06:13.329Z,245.23
2023-04-18T15:08:40.615Z,235.13
2023-04-18T15:11:08.168Z,230.57
2023-04-18T15:13:35.365Z,227.93
2023-04-18T15:16:03.048Z,230.43
2023-04-18T15:18:30.333Z,230.18
2023-04-18T15:21:00.289Z,224.10
2023-04-18T15:23:27.720Z,232.15
2023-04-18T15:25:54.727Z,237.98
2023-04-18T15:28:21.658Z,223.00
2023-04-18T15:30:48.634Z,231.07
2023-04-18T15:33:15.859Z,230.13
2023-04-18T15:35:42.909Z,225.20
2023-04-18T15:38:09.885Z,228.75
2023-04-18T15:40:36.823Z,225.65
2023-04-18T15:43:04.232Z,224.23
2023-04-18T15:45:31.300Z,230.75
2023-04-18T15:47:59.015Z,227.98
2023-04-18T15:50:33.811Z,223.98
2023-04-18T15:53:02.045Z,229.73
2023-04-18T15:55:29.096Z,219.18
2023-04-18T15:57:56.406Z,220.10
2023-04-18T16:00:23.901Z,216.45
2023-04-18T16:02:51.284Z,212.38
2023-04-18T16:05:18.929Z,213.35
2023-04-18T16:07:46.106Z,215.60
2023-04-18T16:10:15.083Z,216.93
2023-04-18T16:12:42.025Z,217.73
2023-04-18T16:15:10.622Z,217.20
2023-04-18T16:17:38.134Z,215.40
2023-04-18T16:20:08.135Z,217.77
2023-04-18T16:22:35.255Z,213.93
2023-04-18T16:25:02.554Z,211.80
2023-04-18T16:27:29.621Z,218.18
2023-04-18T16:29:56.681Z,227.75
2023-04-18T16:32:23.791Z,232.77
2023-04-18T16:34:50.867Z,226.50
2023-04-18T16:37:17.814Z,232.57
2023-04-18T16:39:44.814Z,217.80
2023-04-18T16:42:14.047Z,227.82
2023-04-18T16:44:42.422Z,222.93
2023-04-18T16:47:09.533Z,223.35
2023-04-18T16:49:37.436Z,221.02
2023-04-18T16:52:04.532Z,239.63
2023-04-18T16:54:31.661Z,231.03
2023-04-18T16:56:58.638Z,221.40
2023-04-18T16:59:26.014Z,215.93
2023-04-18T17:01:53.132Z,221.75
2023-04-18T17:04:21.042Z,225.20
2023-04-18T17:06:48.844Z,232.23
2023-04-18T17:09:16.890Z,235.63
2023-04-18T17:11:44.026Z,234.02
2023-04-18T17:14:11.542Z,235.47
2023-04-18T17:16:40.407Z,349.50
2023-04-18T17:19:08.252Z,227.85
2023-04-18T17:21:36.454Z,227.35
2023-04-18T17:24:06.652Z,226.95
2023-04-18T17:26:35.174Z,225.77
2023-04-18T17:29:04.127Z,229.67
2023-04-18T17:31:31.936Z,359.30
2023-04-18T17:34:00.010Z,344.10
2023-04-18T17:36:27.239Z,329.05
2023-04-18T17:38:54.316Z,331.73
2023-04-18T17:41:21.889Z,355.52
2023-04-18T17:43:50.955Z,330.48
2023-04-18T17:46:18.187Z,291.05
2023-04-18T17:48:45.376Z,251.43
2023-04-18T17:51:12.385Z,248.85
2023-04-18T17:53:39.305Z,279.30
2023-04-18T17:56:06.354Z,238.73
2023-04-18T17:58:33.310Z,217.23
2023-04-18T18:01:00.380Z,216.77
2023-04-18T18:03:27.721Z,171.38
2023-04-18T18:05:55.006Z,166.88
2023-04-18T18:08:22.681Z,165.82
2023-04-18T18:10:49.978Z,170.70
2023-04-18T18:13:17.162Z,144.32
2023-04-18T18:15:44.188Z,169.57
2023-04-18T18:18:11.423Z,163.35
2023-04-18T18:20:41.953Z,141.23
2023-04-18T18:23:09.007Z,150.60
2023-04-18T18:25:37.681Z,214.40
2023-04-18T18:28:04.936Z,201.52
2023-04-18T18:30:31.985Z,187.32
2023-04-18T18:33:00.726Z,175.32
2023-04-18T18:35:27.809Z,184.55
2023-04-18T18:37:54.781Z,181.77
2023-04-18T18:40:22.026Z,175.65
2023-04-18T18:42:53.802Z,172.95
2023-04-18T18:45:21.623Z,379.60
2023-04-18T18:47:48.889Z,210.80
2023-04-18T18:50:15.911Z,186.85
2023-04-18T18:52:45.439Z,199.77
2023-04-18T18:55:12.459Z,182.57
2023-04-18T18:57:39.495Z,180.18
2023-04-18T19:00:11.151Z,189.55
2023-04-18T19:02:39.608Z,187.82
2023-04-18T19:05:07.272Z,187.60
2023-04-18T19:07:34.261Z,172.65
2023-04-18T19:10:01.774Z,172.80
2023-04-18T19:12:29.278Z,179.02
2023-04-18T19:14:56.429Z,168.13
2023-04-18T19:17:24.779Z,185.88
2023-04-18T19:19:53.280Z,175.32
2023-04-18T19:22:20.365Z,167.98
2023-04-18T19:24:47.437Z,150.00
2023-04-18T19:27:14.450Z,166.48
2023-04-18T19:29:41.410Z,214.57
2023-04-18T19:32:08.717Z,216.40
2023-04-18T19:34:36.107Z,210.85
2023-04-18T19:37:03.617Z,211.00
2023-04-18T19:39:30.646Z,211.65
2023-04-18T19:41:57.554Z,216.75
2023-04-18T19:44:24.626Z,189.93
2023-04-18T19:46:51.562Z,208.57
2023-04-18T19:49:18.614Z,201.32
2023-04-18T19:51:45.712Z,223.60
2023-04-18T19:54:13.282Z,241.00
2023-04-18T19:56:40.411Z,210.40
2023-04-18T19:59:07.347Z,202.32
2023-04-18T20:01:34.389Z,208.98
2023-04-18T20:04:01.565Z,173.27
2023-04-18T20:06:28.837Z,139.35
2023-04-18T20:08:55.856Z,242.57
2023-04-18T20:11:23.045Z,153.20
2023-04-18T20:13:52.264Z,136.50
2023-04-18T20:16:19.236Z,172.35
2023-04-18T20:18:47.272Z,125.28
2023-04-18T20:21:14.324Z,213.75
2023-04-18T20:23:45.224Z,150.27
2023-04-18T20:26:12.239Z,158.63
2023-04-18T20:28:39.284Z,145.02
2023-04-18T20:31:07.079Z,160.95
2023-04-18T20:33:34.390Z,147.48
2023-04-18T20:36:01.351Z,146.23
2023-04-18T20:38:29.821Z,144.65
2023-04-18T20:40:58.764Z,163.50
2023-04-18T20:43:26.820Z,164.10
2023-04-18T20:45:54.498Z,153.50
2023-04-18T20:48:21.653Z,152.80
2023-04-18T20:50:51.601Z,160.10
2023-04-18T20:53:25.100Z,119.03
2023-04-18T20:55:52.120Z,178.45
2023-04-18T20:58:19.115Z,159.32
2023-04-18T21:00:46.283Z,170.52
2023-04-18T21:03:14.063Z,154.70
2023-04-18T21:05:41.424Z,157.82
2023-04-18T21:08:08.359Z,179.35
2023-04-18T21:10:35.301Z,154.10
2023-04-18T21:13:02.336Z,152.13
2023-04-18T21:15:29.375Z,167.60
2023-04-18T21:17:56.485Z,139.20
2023-04-18T21:20:23.565Z,174.63
2023-04-18T21:22:50.611Z,145.00
2023-04-18T21:25:18.606Z,158.98
2023-04-18T21:27:45.562Z,157.23
2023-04-18T21:30:13.105Z,162.25
2023-04-18T21:32:40.101Z,116.13
2023-04-18T21:35:07.403Z,192.00
2023-04-18T21:37:34.409Z,161.38
2023-04-18T21:40:01.890Z,140.40
2023-04-18T21:42:28.959Z,140.18
2023-04-18T21:44:55.888Z,142.50
2023-04-18T21:47:22.841Z,145.50
2023-04-18T21:49:49.844Z,194.10
2023-04-18T21:52:16.778Z,151.80
2023-04-18T21:54:43.820Z,186.70
2023-04-18T21:57:11.008Z,168.68
2023-04-18T21:59:37.958Z,186.27
2023-04-18T22:02:05.315Z,179.85
2023-04-18T22:04:33.858Z,188.18
2023-04-18T22:07:00.896Z,172.35
2023-04-18T22:09:28.531Z,186.15
2023-04-18T22:11:56.948Z,175.50
2023-04-18T22:14:24.878Z,189.98
2023-04-18T22:16:51.925Z,187.13
2023-04-18T22:19:19.399Z,154.35
2023-04-18T22:21:46.723Z,188.95
2023-04-18T22:24:13.883Z,162.23
2023-04-18T22:26:45.402Z,155.60
2023-04-18T22:29:12.301Z,160.65
2023-04-18T22:31:39.264Z,173.95
2023-04-18T22:34:06.315Z,178.20
2023-04-18T22:36:33.245Z,189.93
2023-04-18T22:39:00.397Z,166.85
2023-04-18T22:41:27.458Z,183.90
2023-04-18T22:43:54.422Z,199.82
2023-04-18T22:46:21.699Z,192.55
2023-04-18T22:48:49.680Z,191.50
2023-04-18T22:51:18.226Z,164.40
2023-04-18T22:53:45.204Z,178.55
2023-04-18T22:56:12.213Z,164.45
2023-04-18T22:58:39.205Z,172.38
2023-04-18T23:01:06.245Z,167.45
2023-04-18T23:03:34.401Z,195.70
2023-04-18T23:06:01.559Z,174.23
2023-04-18T23:08:28.806Z,163.68
2023-04-18T23:10:55.839Z,160.48
2023-04-18T23:13:22.889Z,176.82
2023-04-18T23:15:49.972Z,156.00
2023-04-18T23:18:17.068Z,185.88
2023-04-18T23:20:44.106Z,165.35
2023-04-18T23:23:11.090Z,162.40
2023-04-18T23:25:38.324Z,176.15
2023-04-18T23:28:06.333Z,195.60
2023-04-18T23:30:36.916Z,173.85
2023-04-18T23:33:04.010Z,185.15
2023-04-18T23:35:31.034Z,157.25
2023-04-18T23:37:58.119Z,172.32
2023-04-18T23:40:25.381Z,187.00
2023-04-18T23:42:52.308Z,157.63
2023-04-18T23:45:19.516Z,158.75
2023-04-18T23:47:46.601Z,157.43
2023-04-18T23:50:13.664Z,182.45
2023-04-18T23:52:40.718Z,160.63
2023-04-18T23:55:08.423Z,161.30
2023-04-18T23:57:35.599Z,135.75
